This is the latest recevied weather packets stored in our database for station/object HB9MIR-13. If no packets are shown the sender has not sent any weather packets the latest 10 day(s).
| Time | Temp. | Humidity | Pressure | Rain* | Wind** | Luminosity | Snow |
|---|---|---|---|---|---|---|---|
| 1777183544 | 4.44° C | 87% | 1020.8 hPa | 0 mm | - | 40 W/m² | - |
| 1777182808 | 3.89° C | 88% | 1020.8 hPa | 0 mm | - | 38 W/m² | - |
| 1777182106 | 3.89° C | 88% | 1020.8 hPa | 0 mm | - | 37 W/m² | - |
| 1777181419 | 3.33° C | 90% | 1020.7 hPa | 0 mm | - | 36 W/m² | - |
| 1777180732 | 3.89° C | 88% | 1020.6 hPa | 0 mm | - | 33 W/m² | - |
| 1777180044 | 3.33° C | 89% | 1020.5 hPa | 0 mm | - | 28 W/m² | - |
| 1777179356 | 3.33° C | 87% | 1020.4 hPa | 0 mm | - | 22 W/m² | - |
| 1777178669 | 3.33° C | 87% | 1020.4 hPa | 0 mm | - | 15 W/m² | - |
| 1777177994 | 2.78° C | 88% | 1020.2 hPa | 0 mm | - | 9 W/m² | - |
| 1777177294 | 3.33° C | 88% | 1020.1 hPa | 0 mm | - | 4 W/m² | - |
| 1777176606 | 3.33° C | 88% | 1020.1 hPa | 0 mm | - | 1 W/m² | - |
| 1777175919 | 3.33° C | 88% | 1019.8 hPa | 0 mm | - | 0 W/m² | - |
| 1777175230 | 3.33° C | 86% | 1019.8 hPa | 0 mm | - | 0 W/m² | - |
| 1777174495 | 3.33° C | 89% | 1019.7 hPa | 0 mm | - | 0 W/m² | - |
| 1777173794 | 3.33° C | 90% | 1019.7 hPa | 0 mm | - | 0 W/m² | - |
| 1777173107 | 3.33° C | 89% | 1019.6 hPa | 0 mm | - | 0 W/m² | - |
| 1777172421 | 3.89° C | 86% | 1019.5 hPa | 0 mm | - | 0 W/m² | - |
| 1777171733 | 4.44° C | 86% | 1019.5 hPa | 0 mm | - | 0 W/m² | - |
| 1777171047 | 3.89° C | 88% | 1019.3 hPa | 0 mm | - | 0 W/m² | - |
| 1777170359 | 3.89° C | 87% | 1019.3 hPa | 0 mm | - | 0 W/m² | - |
| 1777169684 | 4.44° C | 87% | 1019.2 hPa | 0 mm | - | 0 W/m² | - |
| 1777168984 | 3.89° C | 87% | 1019.1 hPa | 0 mm | - | 0 W/m² | - |
| 1777168296 | 4.44° C | 84% | 1019 hPa | 0 mm | - | 0 W/m² | - |
| 1777167608 | 5° C | 84% | 1018.9 hPa | 0 mm | - | 0 W/m² | - |
| 1777166922 | 5° C | 86% | 1018.9 hPa | 0 mm | - | 0 W/m² | - |
* Rain latest hour (hover to see other rain measurements)
** Current wind speed in m/s (hover to see current wind gust speed)